createdAt,value
2023-02-06T00:00:54.116Z,4.34
2023-02-06T00:01:54.104Z,4.30
2023-02-06T00:02:54.103Z,4.35
2023-02-06T00:03:54.165Z,4.30
2023-02-06T00:04:54.981Z,4.28
2023-02-06T00:05:54.123Z,4.31
2023-02-06T00:06:54.298Z,4.34
2023-02-06T00:07:54.312Z,4.35
2023-02-06T00:08:54.122Z,4.30
2023-02-06T00:09:55.023Z,4.34
2023-02-06T00:10:54.064Z,4.34
2023-02-06T00:11:54.045Z,4.28
2023-02-06T00:12:54.033Z,4.30
2023-02-06T00:13:54.043Z,4.34
2023-02-06T00:14:54.493Z,4.30
2023-02-06T00:15:54.055Z,4.23
2023-02-06T00:16:54.200Z,4.23
2023-02-06T00:17:55.013Z,4.13
2023-02-06T00:18:54.289Z,4.10
2023-02-06T00:19:54.126Z,4.10
2023-02-06T00:20:54.111Z,4.08
2023-02-06T00:21:54.881Z,4.02
2023-02-06T00:22:54.786Z,3.99
2023-02-06T00:23:53.975Z,4.00
2023-02-06T00:24:53.958Z,3.94
2023-02-06T00:25:53.946Z,3.94
2023-02-06T00:26:53.947Z,3.90
2023-02-06T00:27:53.951Z,3.92
2023-02-06T00:28:53.944Z,3.92
2023-02-06T00:29:53.927Z,3.88
2023-02-06T00:30:53.972Z,3.81
2023-02-06T00:31:53.942Z,3.76
2023-02-06T00:32:53.971Z,3.70
2023-02-06T00:33:53.917Z,3.64
2023-02-06T00:34:53.956Z,3.60
2023-02-06T00:35:53.967Z,3.55
2023-02-06T00:36:53.980Z,3.54
2023-02-06T00:37:53.858Z,3.49
2023-02-06T00:38:53.876Z,3.46
2023-02-06T00:39:53.861Z,3.46
2023-02-06T00:40:53.859Z,3.44
2023-02-06T00:41:53.849Z,3.35
2023-02-06T00:42:53.827Z,3.29
2023-02-06T00:43:53.862Z,3.25
2023-02-06T00:44:53.820Z,3.17
2023-02-06T00:45:53.828Z,3.18
2023-02-06T00:46:53.868Z,3.15
2023-02-06T00:47:53.897Z,3.12
2023-02-06T00:48:53.807Z,3.08
2023-02-06T00:49:53.794Z,3.08
2023-02-06T00:50:53.833Z,3.08
2023-02-06T00:51:54.286Z,3.02
2023-02-06T00:52:54.296Z,2.96
2023-02-06T00:53:54.304Z,2.93
2023-02-06T00:54:54.307Z,2.94
2023-02-06T00:55:53.776Z,2.96
2023-02-06T00:56:53.756Z,2.96
2023-02-06T00:57:54.326Z,2.94
2023-02-06T00:58:53.782Z,2.91
2023-02-06T00:59:53.724Z,2.91
2023-02-06T01:00:53.746Z,2.91
2023-02-06T01:01:53.746Z,2.87
2023-02-06T01:02:53.759Z,2.89
2023-02-06T01:03:53.734Z,2.81
2023-02-06T01:04:53.706Z,2.79
2023-02-06T01:05:53.697Z,2.81
2023-02-06T01:06:54.027Z,2.81
2023-02-06T01:07:54.028Z,2.75
2023-02-06T01:08:53.979Z,2.72
2023-02-06T01:09:53.678Z,2.73
2023-02-06T01:10:53.656Z,2.72
2023-02-06T01:11:54.226Z,2.72
2023-02-06T01:12:53.652Z,2.75
2023-02-06T01:13:54.433Z,2.69
2023-02-06T01:14:54.223Z,2.75
2023-02-06T01:15:54.475Z,2.72
2023-02-06T01:16:54.457Z,2.69
2023-02-06T01:17:54.513Z,2.69
2023-02-06T01:18:54.519Z,2.69
2023-02-06T01:19:54.438Z,2.68
2023-02-06T01:20:54.536Z,2.63
2023-02-06T01:21:54.502Z,2.63
2023-02-06T01:22:53.733Z,2.65
2023-02-06T01:23:54.569Z,2.63
2023-02-06T01:24:54.351Z,2.61
2023-02-06T01:25:53.680Z,2.61
2023-02-06T01:26:54.529Z,2.58
2023-02-06T01:27:53.680Z,2.55
2023-02-06T01:28:54.595Z,2.55
2023-02-06T01:29:53.736Z,2.54
2023-02-06T01:30:54.419Z,2.48
2023-02-06T01:31:53.626Z,2.43
2023-02-06T01:32:53.745Z,2.40
2023-02-06T01:33:53.588Z,2.39
2023-02-06T01:34:53.505Z,2.37
2023-02-06T01:35:53.567Z,2.33
2023-02-06T01:36:53.496Z,2.29
2023-02-06T01:37:53.581Z,2.28
2023-02-06T01:43:11.372Z,2.22
2023-02-06T01:44:11.374Z,2.25
2023-02-06T01:45:11.359Z,2.29
2023-02-06T01:46:11.341Z,2.25
2023-02-06T01:47:11.348Z,2.24
2023-02-06T01:48:11.342Z,2.28
2023-02-06T01:49:11.332Z,2.25
2023-02-06T01:50:11.665Z,2.22
2023-02-06T01:51:12.000Z,2.21
2023-02-06T01:52:11.308Z,2.19
2023-02-06T01:53:11.300Z,2.22
2023-02-06T01:54:11.309Z,2.18
2023-02-06T01:55:11.292Z,2.14
2023-02-06T01:56:11.290Z,2.15
2023-02-06T01:57:11.292Z,2.17
2023-02-06T01:58:11.272Z,2.15
2023-02-06T01:59:11.484Z,2.15
2023-02-06T02:00:11.270Z,2.17
2023-02-06T02:01:11.985Z,2.19
2023-02-06T02:02:11.268Z,2.21
2023-02-06T02:03:12.067Z,2.22
2023-02-06T02:04:11.759Z,2.24
2023-02-06T02:05:11.249Z,2.19
2023-02-06T02:06:11.234Z,2.24
2023-02-06T02:07:11.215Z,2.22
2023-02-06T02:08:11.647Z,2.22
2023-02-06T02:09:11.227Z,2.22
2023-02-06T02:10:11.194Z,2.22
2023-02-06T02:11:11.186Z,2.28
2023-02-06T02:12:11.236Z,2.22
2023-02-06T02:13:11.197Z,2.25
2023-02-06T02:14:11.185Z,2.21
2023-02-06T02:15:11.163Z,2.21
2023-02-06T02:16:11.214Z,2.22
2023-02-06T02:17:11.307Z,2.25
2023-02-06T02:18:11.146Z,2.21
2023-02-06T02:19:11.450Z,2.21
2023-02-06T02:20:11.143Z,2.22
2023-02-06T02:21:11.459Z,2.22
2023-02-06T02:22:11.340Z,2.18
2023-02-06T02:23:11.558Z,2.21
2023-02-06T02:24:11.688Z,2.21
2023-02-06T02:25:11.109Z,2.22
2023-02-06T02:26:11.123Z,2.19
2023-02-06T02:27:11.167Z,2.24
2023-02-06T02:28:11.145Z,2.24
2023-02-06T02:29:11.112Z,2.18
2023-02-06T02:30:11.117Z,2.17
2023-02-06T02:31:11.120Z,2.22
2023-02-06T02:32:11.068Z,2.18
2023-02-06T02:33:11.064Z,2.21
2023-02-06T02:34:11.095Z,2.21
2023-02-06T02:35:11.576Z,2.24
2023-02-06T02:36:11.584Z,2.25
2023-02-06T02:37:11.596Z,2.22
2023-02-06T02:38:11.596Z,2.25
2023-02-06T02:39:11.084Z,2.24
2023-02-06T02:40:11.032Z,2.29
2023-02-06T02:41:11.614Z,2.25
2023-02-06T02:42:11.033Z,2.29
2023-02-06T02:43:11.000Z,2.24
2023-02-06T02:44:11.625Z,2.22
2023-02-06T02:45:10.982Z,2.32
2023-02-06T02:46:11.739Z,2.29
2023-02-06T02:47:10.970Z,2.25
2023-02-06T02:48:11.857Z,2.25
2023-02-06T02:49:11.858Z,2.25
2023-02-06T02:50:11.449Z,2.24
2023-02-06T02:51:11.809Z,2.29
2023-02-06T02:52:10.966Z,2.24
2023-02-06T02:53:10.945Z,2.28
2023-02-06T02:54:10.972Z,2.25
2023-02-06T02:55:10.925Z,2.29
2023-02-06T02:56:10.925Z,2.28
2023-02-06T02:57:10.943Z,2.25
2023-02-06T02:58:10.908Z,2.32
2023-02-06T02:59:11.119Z,2.29
2023-02-06T03:00:11.084Z,2.32
2023-02-06T03:01:10.892Z,2.33
2023-02-06T03:02:10.924Z,2.30
2023-02-06T03:03:10.861Z,2.33
2023-02-06T03:04:10.930Z,2.35
2023-02-06T03:05:10.850Z,2.37
2023-02-06T03:06:10.939Z,2.37
2023-02-06T03:07:10.845Z,2.39
2023-02-06T03:08:10.838Z,2.37
2023-02-06T03:09:10.838Z,2.37
2023-02-06T03:10:10.821Z,2.42
2023-02-06T03:11:11.086Z,2.39
2023-02-06T03:12:10.829Z,2.40
2023-02-06T03:13:10.872Z,2.39
2023-02-06T03:14:10.806Z,2.36
2023-02-06T03:15:10.787Z,2.37
2023-02-06T03:16:10.811Z,2.37
2023-02-06T03:17:10.810Z,2.39
2023-02-06T03:18:10.773Z,2.40
2023-02-06T03:19:10.796Z,2.40
2023-02-06T03:20:10.754Z,2.40
2023-02-06T03:21:10.745Z,2.43
2023-02-06T03:22:10.744Z,2.39
2023-02-06T03:23:10.735Z,2.39
2023-02-06T03:24:10.734Z,2.39
2023-02-06T03:25:11.076Z,2.36
2023-02-06T03:26:10.725Z,2.35
2023-02-06T03:27:10.785Z,2.36
2023-02-06T03:28:10.767Z,2.35
2023-02-06T03:29:10.694Z,2.37
2023-02-06T03:30:10.740Z,2.37
2023-02-06T03:31:10.695Z,2.42
2023-02-06T03:32:10.705Z,2.37
2023-02-06T03:33:10.672Z,2.39
2023-02-06T03:34:10.823Z,2.36
2023-02-06T03:35:10.672Z,2.40
2023-02-06T03:36:10.661Z,2.39
2023-02-06T03:37:10.651Z,2.37
2023-02-06T03:38:10.663Z,2.40
2023-02-06T03:39:10.631Z,2.40
2023-02-06T03:40:10.652Z,2.40
2023-02-06T03:41:10.639Z,2.42
2023-02-06T03:42:10.636Z,2.40
2023-02-06T03:43:10.619Z,2.39
2023-02-06T03:44:10.621Z,2.36
2023-02-06T03:45:10.698Z,2.39
2023-02-06T03:46:10.730Z,2.39
2023-02-06T03:47:10.839Z,2.40
2023-02-06T03:48:10.596Z,2.40
2023-02-06T03:49:10.584Z,2.40
2023-02-06T03:50:10.747Z,2.40
2023-02-06T03:51:10.562Z,2.42
2023-02-06T03:52:10.560Z,2.43
2023-02-06T03:53:10.558Z,2.40
2023-02-06T03:54:11.388Z,2.45
2023-02-06T03:55:11.179Z,2.43
2023-02-06T03:56:10.689Z,2.43
2023-02-06T03:57:10.548Z,2.43
2023-02-06T03:58:10.529Z,2.42
2023-02-06T03:59:10.529Z,2.42
2023-02-06T04:00:10.530Z,2.39
2023-02-06T04:01:10.558Z,2.43
2023-02-06T04:02:10.535Z,2.47
2023-02-06T04:03:10.498Z,2.43
2023-02-06T04:04:11.459Z,2.48
2023-02-06T04:05:10.509Z,2.40
2023-02-06T04:06:10.671Z,2.45
2023-02-06T04:07:10.486Z,2.42
2023-02-06T04:08:10.488Z,2.48
2023-02-06T04:09:10.469Z,2.47
2023-02-06T04:10:10.482Z,2.40
2023-02-06T04:11:10.486Z,2.39
2023-02-06T04:12:10.469Z,2.40
2023-02-06T04:13:10.449Z,2.40
2023-02-06T04:14:10.707Z,2.42
2023-02-06T04:15:10.431Z,2.40
2023-02-06T04:16:10.509Z,2.39
2023-02-06T04:17:10.448Z,2.39
2023-02-06T04:18:10.410Z,2.42
2023-02-06T04:19:10.396Z,2.43
2023-02-06T04:20:10.413Z,2.43
2023-02-06T04:21:11.050Z,2.43
2023-02-06T04:22:10.406Z,2.43
2023-02-06T04:23:11.184Z,2.43
2023-02-06T04:24:11.196Z,2.43
2023-02-06T04:25:11.195Z,2.45
2023-02-06T04:26:10.794Z,2.43
2023-02-06T04:27:10.419Z,2.50
2023-02-06T04:28:10.466Z,2.51
2023-02-06T04:29:10.614Z,2.50
2023-02-06T04:30:11.263Z,2.51
2023-02-06T04:31:11.278Z,2.51
2023-02-06T04:32:10.381Z,2.53
2023-02-06T04:33:11.240Z,2.54
2023-02-06T04:34:11.142Z,2.53
2023-02-06T04:35:11.132Z,2.51
2023-02-06T04:36:10.748Z,2.51
2023-02-06T04:37:10.871Z,2.53
2023-02-06T04:38:11.288Z,2.47
2023-02-06T04:39:11.157Z,2.47
2023-02-06T04:40:11.261Z,2.50
2023-02-06T04:41:11.255Z,2.51
2023-02-06T04:42:10.279Z,2.48
2023-02-06T04:43:10.290Z,2.47
2023-02-06T04:44:10.280Z,2.51
2023-02-06T04:45:10.249Z,2.48
2023-02-06T04:46:10.345Z,2.53
2023-02-06T04:47:10.240Z,2.54
2023-02-06T04:48:10.325Z,2.60
2023-02-06T04:49:10.335Z,2.55
2023-02-06T04:50:10.336Z,2.60
2023-02-06T04:51:10.218Z,2.54
2023-02-06T04:52:10.187Z,2.57
2023-02-06T04:53:10.356Z,2.55
2023-02-06T04:54:10.183Z,2.58
2023-02-06T04:55:10.208Z,2.50
2023-02-06T04:56:10.181Z,2.45
2023-02-06T04:57:10.386Z,2.45
2023-02-06T04:58:10.256Z,2.43
2023-02-06T04:59:10.513Z,2.48
2023-02-06T05:00:10.153Z,2.48
2023-02-06T05:01:10.254Z,2.47
2023-02-06T05:02:10.411Z,2.43
2023-02-06T05:03:10.223Z,2.42
2023-02-06T05:04:10.241Z,2.39
2023-02-06T05:05:10.129Z,2.42
2023-02-06T05:06:10.109Z,2.40
2023-02-06T05:07:10.251Z,2.37
2023-02-06T05:08:10.247Z,2.36
2023-02-06T05:09:10.095Z,2.35
2023-02-06T05:10:10.481Z,2.35
2023-02-06T05:11:10.139Z,2.30
2023-02-06T05:12:11.623Z,2.30
2023-02-06T05:13:10.495Z,2.29
2023-02-06T05:14:10.568Z,2.33
2023-02-06T05:15:10.577Z,2.28
2023-02-06T05:16:10.172Z,2.28
2023-02-06T05:17:10.172Z,2.25
2023-02-06T05:18:10.172Z,2.30
2023-02-06T05:19:10.121Z,2.35
2023-02-06T05:20:10.035Z,2.32
2023-02-06T05:21:10.140Z,2.30
2023-02-06T05:22:10.037Z,2.33
2023-02-06T05:23:10.149Z,2.36
2023-02-06T05:24:10.226Z,2.42
2023-02-06T05:25:10.381Z,2.37
2023-02-06T05:26:09.978Z,2.39
2023-02-06T05:27:09.980Z,2.37
2023-02-06T05:28:10.190Z,2.35
2023-02-06T05:29:10.002Z,2.32
2023-02-06T05:30:09.978Z,2.25
2023-02-06T05:31:10.111Z,2.25
2023-02-06T05:32:10.066Z,2.25
2023-02-06T05:33:10.425Z,2.25
2023-02-06T05:34:09.968Z,2.21
2023-02-06T05:35:09.932Z,2.24
2023-02-06T05:36:10.038Z,2.29
2023-02-06T05:37:10.046Z,2.33
2023-02-06T05:38:09.964Z,2.37
2023-02-06T05:39:09.946Z,2.33
2023-02-06T05:40:09.924Z,2.32
2023-02-06T05:41:09.937Z,2.29
2023-02-06T05:42:10.023Z,2.30
2023-02-06T05:43:10.026Z,2.25
2023-02-06T05:44:10.050Z,2.35
2023-02-06T05:45:10.060Z,2.39
2023-02-06T05:46:09.906Z,2.39
2023-02-06T05:47:10.090Z,2.37
2023-02-06T05:48:09.861Z,2.32
2023-02-06T05:49:10.096Z,2.35
2023-02-06T05:50:10.127Z,2.37
2023-02-06T05:51:10.064Z,2.36
2023-02-06T05:52:09.847Z,2.37
2023-02-06T05:53:09.813Z,2.39
2023-02-06T05:54:09.863Z,2.42
2023-02-06T05:55:09.844Z,2.39
2023-02-06T05:56:09.845Z,2.39
2023-02-06T05:57:09.787Z,2.36
2023-02-06T05:58:09.780Z,2.40
2023-02-06T05:59:09.867Z,2.45
2023-02-06T06:00:09.798Z,2.42
2023-02-06T06:01:09.765Z,2.42
2023-02-06T06:02:09.754Z,2.40
2023-02-06T06:03:09.888Z,2.40
2023-02-06T06:04:09.966Z,2.42
2023-02-06T06:05:09.935Z,2.42
2023-02-06T06:06:09.925Z,2.37
2023-02-06T06:07:09.752Z,2.39
2023-02-06T06:08:09.714Z,2.42
2023-02-06T06:09:09.964Z,2.35
2023-02-06T06:10:09.739Z,2.33
2023-02-06T06:11:09.993Z,2.32
2023-02-06T06:12:10.021Z,2.35
2023-02-06T06:13:09.733Z,2.32
2023-02-06T06:14:10.035Z,2.37
2023-02-06T06:15:10.042Z,2.39
2023-02-06T06:16:09.812Z,2.36
2023-02-06T06:17:09.673Z,2.37
2023-02-06T06:18:10.081Z,2.32
2023-02-06T06:19:09.791Z,2.32
2023-02-06T06:20:10.117Z,2.32
2023-02-06T06:21:10.121Z,2.35
2023-02-06T06:22:10.051Z,2.33
2023-02-06T06:23:10.152Z,2.37
2023-02-06T06:24:09.822Z,2.35
2023-02-06T06:25:10.150Z,2.32
2023-02-06T06:26:09.790Z,2.32
2023-02-06T06:27:09.930Z,2.28
2023-02-06T06:28:10.644Z,2.28
2023-02-06T06:29:10.152Z,2.25
2023-02-06T06:30:09.639Z,2.25
2023-02-06T06:31:10.006Z,2.24
2023-02-06T06:32:09.655Z,2.21
2023-02-06T06:33:09.595Z,2.25
2023-02-06T06:34:09.585Z,2.25
2023-02-06T06:35:09.605Z,2.22
2023-02-06T06:36:09.634Z,2.21
2023-02-06T06:37:09.702Z,2.22
2023-02-06T06:38:09.724Z,2.25
2023-02-06T06:39:09.615Z,2.32
2023-02-06T06:40:09.820Z,2.32
2023-02-06T06:41:09.605Z,2.29
2023-02-06T06:42:09.917Z,2.30
2023-02-06T06:43:09.534Z,2.30
2023-02-06T06:44:09.542Z,2.30
2023-02-06T06:45:09.571Z,2.28
2023-02-06T06:46:09.660Z,2.25
2023-02-06T06:47:09.521Z,2.28
2023-02-06T06:48:09.599Z,2.21
2023-02-06T06:49:09.760Z,2.15
2023-02-06T06:50:09.678Z,2.07
2023-02-06T06:51:09.505Z,2.10
2023-02-06T06:52:23.096Z,2.11
2023-02-06T06:53:09.984Z,2.01
2023-02-06T06:54:09.462Z,1.97
2023-02-06T06:55:09.997Z,1.97
2023-02-06T06:56:09.432Z,1.99
2023-02-06T06:57:10.893Z,1.93
2023-02-06T06:58:09.798Z,1.87
2023-02-06T06:59:09.520Z,1.85
2023-02-06T07:00:10.016Z,1.87
2023-02-06T07:01:09.848Z,1.92
2023-02-06T07:02:09.408Z,1.87
2023-02-06T07:03:09.564Z,1.84
2023-02-06T07:04:10.308Z,1.82
2023-02-06T07:05:09.565Z,1.82
2023-02-06T07:06:09.867Z,1.81
2023-02-06T07:07:09.556Z,1.75
2023-02-06T07:08:10.180Z,1.77
2023-02-06T07:09:10.340Z,1.73
2023-02-06T07:10:09.644Z,1.69
2023-02-06T07:11:09.333Z,1.74
2023-02-06T07:12:09.348Z,1.73
2023-02-06T07:13:09.361Z,1.74
2023-02-06T07:14:09.409Z,1.75
2023-02-06T07:15:09.465Z,1.73
2023-02-06T07:16:09.362Z,1.74
2023-02-06T07:17:09.348Z,1.75
2023-02-06T07:18:11.430Z,1.74
2023-02-06T07:19:09.337Z,1.77
2023-02-06T07:20:09.352Z,1.73
2023-02-06T07:21:09.362Z,1.71
2023-02-06T07:22:09.372Z,1.67
2023-02-06T07:23:09.272Z,1.73
2023-02-06T07:24:09.271Z,1.75
2023-02-06T07:25:09.394Z,1.77
2023-02-06T07:26:09.272Z,1.77
2023-02-06T07:27:09.296Z,1.78
2023-02-06T07:28:09.280Z,1.75
2023-02-06T07:29:09.330Z,1.80
2023-02-06T07:30:09.331Z,1.82
2023-02-06T07:31:09.350Z,1.77
2023-02-06T07:32:09.365Z,1.85
2023-02-06T07:33:09.239Z,1.84
2023-02-06T07:34:09.386Z,1.81
2023-02-06T07:35:09.250Z,1.85
2023-02-06T07:36:09.417Z,1.82
2023-02-06T07:37:09.434Z,1.87
2023-02-06T07:38:09.438Z,1.87
2023-02-06T07:39:09.457Z,1.87
2023-02-06T07:40:09.302Z,1.93
2023-02-06T07:41:10.367Z,1.97
2023-02-06T07:42:09.214Z,2.03
2023-02-06T07:43:09.257Z,2.10
2023-02-06T07:44:09.299Z,2.07
2023-02-06T07:45:09.350Z,2.04
2023-02-06T07:46:09.160Z,1.93
2023-02-06T07:47:09.137Z,1.89
2023-02-06T07:48:09.135Z,1.91
2023-02-06T07:49:09.144Z,1.87
2023-02-06T07:50:09.152Z,1.84
2023-02-06T07:51:09.137Z,1.85
2023-02-06T07:52:09.170Z,1.92
2023-02-06T07:53:09.177Z,1.89
2023-02-06T07:54:09.252Z,1.93
2023-02-06T07:55:09.213Z,1.99
2023-02-06T07:56:09.333Z,1.99
2023-02-06T07:57:09.374Z,1.97
2023-02-06T07:58:09.421Z,1.95
2023-02-06T07:59:09.371Z,1.97
2023-02-06T08:00:09.511Z,1.97
2023-02-06T08:01:09.177Z,1.99
2023-02-06T08:02:09.610Z,2.04
2023-02-06T08:03:09.433Z,2.07
2023-02-06T08:04:09.183Z,2.07
2023-02-06T08:05:09.392Z,2.12
2023-02-06T08:06:09.799Z,2.07
2023-02-06T08:07:09.820Z,2.10
2023-02-06T08:08:09.493Z,2.14
2023-02-06T08:09:09.056Z,2.18
2023-02-06T08:10:09.048Z,2.24
2023-02-06T08:11:09.504Z,2.30
2023-02-06T08:12:11.743Z,2.33
2023-02-06T08:13:09.837Z,2.39
2023-02-06T08:14:09.499Z,2.36
2023-02-06T08:15:09.896Z,2.33
2023-02-06T08:16:09.212Z,2.35
2023-02-06T08:17:09.016Z,2.36
2023-02-06T08:18:08.990Z,2.21
2023-02-06T08:19:09.546Z,2.14
2023-02-06T08:20:08.944Z,2.12
2023-02-06T08:21:09.014Z,2.11
2023-02-06T08:22:08.936Z,2.17
2023-02-06T08:23:09.090Z,2.29
2023-02-06T08:24:09.826Z,2.36
2023-02-06T08:25:09.709Z,2.33
2023-02-06T08:26:09.826Z,2.29
2023-02-06T08:27:08.914Z,2.18
2023-02-06T08:28:09.043Z,2.10
2023-02-06T08:29:08.861Z,2.15
2023-02-06T08:30:08.860Z,2.17
2023-02-06T08:31:09.016Z,2.19
2023-02-06T08:32:08.876Z,2.21
2023-02-06T08:33:08.921Z,2.18
2023-02-06T08:34:08.930Z,2.21
2023-02-06T08:35:08.840Z,2.18
2023-02-06T08:36:08.830Z,2.18
2023-02-06T08:37:08.850Z,2.24
2023-02-06T08:38:08.900Z,2.29
2023-02-06T08:39:08.940Z,2.37
2023-02-06T08:40:08.990Z,2.40
2023-02-06T08:41:08.970Z,2.50
2023-02-06T08:42:09.072Z,2.53
2023-02-06T08:43:09.143Z,2.53
2023-02-06T08:44:09.178Z,2.53
2023-02-06T08:45:08.908Z,2.63
2023-02-06T08:46:09.125Z,2.54
2023-02-06T08:47:10.751Z,2.55
2023-02-06T08:48:09.068Z,2.53
2023-02-06T08:49:09.106Z,2.54
2023-02-06T08:50:08.739Z,2.48
2023-02-06T08:51:09.175Z,2.39
2023-02-06T08:52:09.573Z,2.36
2023-02-06T08:53:08.990Z,2.39
2023-02-06T08:54:09.156Z,2.37
2023-02-06T08:55:08.754Z,2.30
2023-02-06T08:56:08.968Z,2.32
2023-02-06T08:57:08.814Z,2.29
2023-02-06T08:58:08.758Z,2.28
2023-02-06T08:59:09.504Z,2.30
2023-02-06T09:00:09.579Z,2.29
2023-02-06T09:01:09.463Z,2.24
2023-02-06T09:02:08.771Z,2.30
2023-02-06T09:03:08.640Z,2.36
2023-02-06T09:04:08.663Z,2.39
2023-02-06T09:05:08.633Z,2.32
2023-02-06T09:06:10.390Z,2.25
2023-02-06T09:07:08.648Z,2.21
2023-02-06T09:08:08.645Z,2.17
2023-02-06T09:09:08.654Z,2.18
2023-02-06T09:10:16.285Z,2.17
2023-02-06T09:11:08.665Z,2.22
2023-02-06T09:12:08.592Z,2.29
2023-02-06T09:13:08.580Z,2.25
2023-02-06T09:14:08.589Z,2.30
2023-02-06T09:15:08.600Z,2.32
2023-02-06T09:16:08.723Z,2.33
2023-02-06T09:17:08.550Z,2.30
2023-02-06T09:18:08.545Z,2.29
2023-02-06T09:19:08.649Z,2.32
2023-02-06T09:20:08.665Z,2.25
2023-02-06T09:21:08.678Z,2.22
2023-02-06T09:22:08.556Z,2.28
2023-02-06T09:23:08.700Z,2.22
2023-02-06T09:24:08.725Z,2.29
2023-02-06T09:25:08.727Z,2.30
2023-02-06T09:26:08.736Z,2.30
2023-02-06T09:27:08.862Z,2.25
2023-02-06T09:28:08.526Z,2.22
2023-02-06T09:29:08.779Z,2.22
2023-02-06T09:30:08.587Z,2.24
2023-02-06T09:31:08.936Z,2.36
2023-02-06T09:32:08.470Z,2.39
2023-02-06T09:33:08.506Z,2.40
2023-02-06T09:34:08.439Z,2.47
2023-02-06T09:35:08.649Z,2.51
2023-02-06T09:36:08.627Z,2.57
2023-02-06T09:37:08.668Z,2.53
2023-02-06T09:38:08.411Z,2.58
2023-02-06T09:39:08.757Z,2.65
2023-02-06T09:40:08.805Z,2.65
2023-02-06T09:41:08.387Z,2.60
2023-02-06T09:42:08.431Z,2.57
2023-02-06T09:43:08.392Z,2.48
2023-02-06T09:44:08.413Z,2.53
2023-02-06T09:45:08.455Z,2.45
2023-02-06T09:46:08.523Z,2.42
2023-02-06T09:47:08.551Z,2.47
2023-02-06T09:48:08.602Z,2.54
2023-02-06T09:49:08.492Z,2.63
2023-02-06T09:50:08.333Z,2.75
2023-02-06T09:51:08.342Z,2.75
2023-02-06T09:52:08.783Z,2.71
2023-02-06T09:53:08.326Z,2.76
2023-02-06T09:54:08.331Z,2.86
2023-02-06T09:55:08.307Z,2.87
2023-02-06T09:56:08.300Z,2.96
2023-02-06T09:57:08.308Z,2.99
2023-02-06T09:58:08.311Z,2.99
2023-02-06T09:59:08.339Z,2.97
2023-02-06T10:00:08.359Z,2.91
2023-02-06T10:01:08.366Z,2.90
2023-02-06T10:02:08.360Z,2.96
2023-02-06T10:03:08.382Z,2.97
2023-02-06T10:04:08.413Z,3.09
2023-02-06T10:05:08.385Z,3.00
2023-02-06T10:06:08.232Z,2.90
2023-02-06T10:07:08.265Z,2.82
2023-02-06T10:08:08.438Z,2.76
2023-02-06T10:09:08.233Z,2.72
2023-02-06T10:10:08.278Z,2.69
2023-02-06T10:11:08.239Z,2.82
2023-02-06T10:12:08.247Z,2.86
2023-02-06T10:13:08.175Z,2.97
2023-02-06T10:14:08.187Z,3.05
2023-02-06T10:15:08.181Z,3.02
2023-02-06T10:16:09.495Z,3.00
2023-02-06T10:17:08.205Z,3.18
2023-02-06T10:18:08.235Z,3.20
2023-02-06T10:19:08.200Z,3.09
2023-02-06T10:20:08.154Z,2.99
2023-02-06T10:21:08.145Z,3.08
2023-02-06T10:22:08.197Z,3.00
2023-02-06T10:23:08.236Z,2.93
2023-02-06T10:24:08.274Z,2.99
2023-02-06T10:25:08.315Z,3.00
2023-02-06T10:26:08.325Z,3.09
2023-02-06T10:27:08.092Z,3.11
2023-02-06T10:28:08.216Z,3.09
2023-02-06T10:29:08.113Z,3.04
2023-02-06T10:30:08.189Z,2.97
2023-02-06T10:31:08.210Z,2.96
2023-02-06T10:32:08.123Z,2.89
2023-02-06T10:33:14.394Z,2.89
2023-02-06T10:34:08.335Z,2.93
2023-02-06T10:35:08.416Z,3.04
2023-02-06T10:36:08.044Z,3.17
2023-02-06T10:37:08.466Z,3.35
2023-02-06T10:38:08.494Z,3.51
2023-02-06T10:39:08.021Z,3.55
2023-02-06T10:40:08.021Z,3.55
2023-02-06T10:41:08.294Z,3.67
2023-02-06T10:42:08.443Z,3.82
2023-02-06T10:43:08.047Z,4.13
2023-02-06T10:44:08.123Z,4.26
2023-02-06T10:45:19.288Z,4.28
2023-02-06T10:46:08.184Z,4.20
2023-02-06T10:47:08.475Z,3.91
2023-02-06T10:48:08.625Z,3.82
2023-02-06T10:49:07.954Z,3.78
2023-02-06T10:50:07.986Z,3.74
2023-02-06T10:51:08.304Z,3.59
2023-02-06T10:52:07.962Z,3.54
2023-02-06T10:53:08.688Z,3.42
2023-02-06T10:54:07.962Z,3.42
2023-02-06T10:55:07.923Z,3.48
2023-02-06T10:56:07.930Z,3.54
2023-02-06T10:57:07.933Z,3.54
2023-02-06T10:58:07.925Z,3.45
2023-02-06T10:59:07.931Z,3.45
2023-02-06T11:00:07.971Z,3.37
2023-02-06T11:01:23.741Z,3.35
2023-02-06T11:02:08.135Z,3.41
2023-02-06T11:03:08.688Z,3.49
2023-02-06T11:04:08.150Z,3.51
2023-02-06T11:05:08.194Z,3.48
2023-02-06T11:06:07.923Z,3.55
2023-02-06T11:07:08.068Z,3.67
2023-02-06T11:08:08.139Z,3.73
2023-02-06T11:09:08.379Z,3.81
2023-02-06T11:10:07.845Z,3.92
2023-02-06T11:11:07.959Z,4.08
2023-02-06T11:12:08.395Z,4.12
2023-02-06T11:13:07.847Z,4.16
2023-02-06T11:14:07.812Z,4.09
2023-02-06T11:15:08.270Z,4.02
2023-02-06T11:16:07.965Z,4.06
2023-02-06T11:17:07.796Z,4.10
2023-02-06T11:18:08.018Z,4.06
2023-02-06T11:19:08.613Z,3.88
2023-02-06T11:20:07.775Z,3.82
2023-02-06T11:21:08.346Z,3.73
2023-02-06T11:22:07.996Z,3.67
2023-02-06T11:23:07.742Z,3.72
2023-02-06T11:24:08.652Z,3.73
2023-02-06T11:25:07.744Z,3.80
2023-02-06T11:26:07.764Z,3.81
2023-02-06T11:27:07.818Z,3.80
2023-02-06T11:28:07.865Z,3.70
2023-02-06T11:29:07.927Z,3.72
2023-02-06T11:30:07.964Z,3.64
2023-02-06T11:31:08.034Z,3.60
2023-02-06T11:32:08.043Z,3.48
2023-02-06T11:33:07.952Z,3.42
2023-02-06T11:34:08.193Z,3.30
2023-02-06T11:35:07.995Z,3.26
2023-02-06T11:36:07.684Z,3.30
2023-02-06T11:37:07.691Z,3.36
2023-02-06T11:38:07.742Z,3.51
2023-02-06T11:39:07.674Z,3.54
2023-02-06T11:40:07.824Z,3.60
2023-02-06T11:41:07.637Z,3.60
2023-02-06T11:42:07.631Z,3.66
2023-02-06T11:43:07.622Z,3.80
2023-02-06T11:44:07.642Z,3.85
2023-02-06T11:45:07.609Z,3.94
2023-02-06T11:46:07.733Z,3.91
2023-02-06T11:47:07.599Z,3.87
2023-02-06T11:48:07.670Z,3.73
2023-02-06T11:49:07.680Z,3.74
2023-02-06T11:50:07.679Z,3.67
2023-02-06T11:51:07.687Z,3.66
2023-02-06T11:52:07.702Z,3.66
2023-02-06T11:53:07.707Z,3.56
2023-02-06T11:54:07.734Z,3.54
2023-02-06T11:55:07.742Z,3.41
2023-02-06T11:56:07.536Z,3.42
2023-02-06T11:57:07.798Z,3.49
2023-02-06T11:58:07.786Z,3.52
2023-02-06T11:59:07.798Z,3.51
2023-02-06T12:00:07.562Z,3.48
2023-02-06T12:01:07.806Z,3.46
2023-02-06T12:02:07.589Z,3.52
2023-02-06T12:03:07.876Z,3.60
2023-02-06T12:04:07.559Z,3.60
2023-02-06T12:05:07.627Z,3.59
2023-02-06T12:06:07.887Z,3.52
2023-02-06T12:07:07.784Z,3.45
2023-02-06T12:08:07.560Z,3.36
2023-02-06T12:09:07.783Z,3.37
2023-02-06T12:10:07.934Z,3.36
2023-02-06T12:11:07.444Z,3.32
2023-02-06T12:12:07.444Z,3.36
2023-02-06T12:13:07.434Z,3.36
2023-02-06T12:14:07.425Z,3.29
2023-02-06T12:15:29.444Z,3.18
2023-02-06T12:16:07.506Z,3.23
2023-02-06T12:17:07.471Z,3.27
2023-02-06T12:18:07.582Z,3.44
2023-02-06T12:19:07.631Z,3.49
2023-02-06T12:20:07.412Z,3.55
2023-02-06T12:21:07.437Z,3.56
2023-02-06T12:22:07.461Z,3.62
2023-02-06T12:23:07.360Z,3.72
2023-02-06T12:24:07.414Z,3.78
2023-02-06T12:25:07.442Z,3.81
2023-02-06T12:26:07.471Z,3.76
2023-02-06T12:27:07.329Z,3.78
2023-02-06T12:28:07.572Z,3.80
2023-02-06T12:29:07.499Z,3.82
2023-02-06T12:30:07.517Z,3.90
2023-02-06T12:31:07.512Z,3.87
2023-02-06T12:32:07.527Z,3.85
2023-02-06T12:33:07.575Z,3.88
2023-02-06T12:34:07.405Z,3.87
2023-02-06T12:35:07.553Z,3.99
2023-02-06T12:36:07.284Z,3.98
2023-02-06T12:37:07.557Z,3.88
2023-02-06T12:38:07.431Z,3.84
2023-02-06T12:39:07.583Z,3.74
2023-02-06T12:40:07.602Z,3.60
2023-02-06T12:41:07.446Z,3.63
2023-02-06T12:42:07.606Z,3.64
2023-02-06T12:43:07.529Z,3.67
2023-02-06T12:44:07.629Z,3.78
2023-02-06T12:45:08.040Z,3.87
2023-02-06T12:46:07.895Z,3.90
2023-02-06T12:47:07.312Z,3.85
2023-02-06T12:48:08.063Z,3.88
2023-02-06T12:49:07.311Z,3.92
2023-02-06T12:50:07.319Z,3.91
2023-02-06T12:51:07.275Z,3.84
2023-02-06T12:52:07.265Z,3.90
2023-02-06T12:53:07.175Z,3.91
2023-02-06T12:54:07.229Z,3.84
2023-02-06T12:55:07.276Z,3.81
2023-02-06T12:56:07.181Z,3.72
2023-02-06T12:57:07.401Z,3.72
2023-02-06T12:58:07.405Z,3.73
2023-02-06T12:59:07.457Z,3.80
2023-02-06T13:00:07.423Z,3.85
2023-02-06T13:01:12.073Z,3.90
2023-02-06T13:02:07.635Z,3.84
2023-02-06T13:03:07.158Z,3.84
2023-02-06T13:04:07.100Z,3.81
2023-02-06T13:05:07.734Z,3.78
2023-02-06T13:06:07.295Z,3.76
2023-02-06T13:07:07.460Z,3.81
2023-02-06T13:08:07.576Z,3.88
2023-02-06T13:09:07.594Z,3.94
2023-02-06T13:10:07.914Z,4.02
2023-02-06T13:11:08.050Z,4.10
2023-02-06T13:12:07.437Z,4.21
2023-02-06T13:13:07.176Z,4.23
2023-02-06T13:14:07.664Z,4.31
2023-02-06T13:15:07.990Z,4.27
2023-02-06T13:16:07.947Z,4.26
2023-02-06T13:17:07.040Z,4.27
2023-02-06T13:18:07.035Z,4.31
2023-02-06T13:19:07.023Z,4.39
2023-02-06T13:20:07.062Z,4.42
2023-02-06T13:21:07.096Z,4.49
2023-02-06T13:22:07.113Z,4.53
2023-02-06T13:23:07.033Z,4.51